createdAt,value
2023-02-26T00:05:42.868Z,0.38
2023-02-26T00:17:43.315Z,0.64
2023-02-26T00:29:43.766Z,0.15
2023-02-26T00:41:44.302Z,0.91
2023-02-26T00:53:44.637Z,1.87
2023-02-26T01:05:45.133Z,0.52
2023-02-26T01:17:45.530Z,1.64
2023-02-26T01:29:46.064Z,1.02
2023-02-26T01:41:46.451Z,0.45
2023-02-26T01:53:46.952Z,0.40
2023-02-26T02:05:47.395Z,0.39
2023-02-26T02:17:47.830Z,0.21
2023-02-26T02:29:48.297Z,0.30
2023-02-26T02:41:48.738Z,0.37
2023-02-26T02:53:49.165Z,0.21
2023-02-26T03:05:49.683Z,0.18
2023-02-26T03:17:50.099Z,0.23
2023-02-26T03:29:50.561Z,0.13
2023-02-26T03:41:50.974Z,0.41
2023-02-26T03:53:51.476Z,0.40
2023-02-26T04:05:51.884Z,1.22
2023-02-26T04:17:52.370Z,1.41
2023-02-26T04:29:52.811Z,0.31
2023-02-26T04:41:53.217Z,1.37
2023-02-26T04:53:53.685Z,0.85
2023-02-26T05:05:54.165Z,0.82
2023-02-26T05:17:54.571Z,0.96
2023-02-26T05:29:55.059Z,0.51
2023-02-26T05:41:55.889Z,1.31
2023-02-26T05:53:56.332Z,0.82
2023-02-26T06:05:56.771Z,0.85
2023-02-26T06:17:57.243Z,0.74
2023-02-26T06:29:57.647Z,0.95
2023-02-26T06:41:58.123Z,1.45
2023-02-26T06:53:58.585Z,2.33
2023-02-26T07:06:06.458Z,2.21
2023-02-26T07:17:59.448Z,2.23
2023-02-26T07:29:59.910Z,2.46
2023-02-26T07:42:00.389Z,3.81
2023-02-26T07:54:00.847Z,3.27
2023-02-26T08:06:01.295Z,3.40
2023-02-26T08:18:01.749Z,2.14
2023-02-26T08:30:02.199Z,2.89
2023-02-26T08:42:02.638Z,1.77
2023-02-26T08:54:03.076Z,3.38
2023-02-26T09:06:03.532Z,4.04
2023-02-26T09:18:03.967Z,1.98
2023-02-26T09:30:04.477Z,3.40
2023-02-26T09:42:04.873Z,4.13
2023-02-26T09:54:05.311Z,5.06
2023-02-26T10:06:05.810Z,3.11
2023-02-26T10:18:06.283Z,2.98
2023-02-26T10:30:06.709Z,3.33
2023-02-26T10:42:07.147Z,4.73
2023-02-26T10:54:07.569Z,2.87
2023-02-26T11:06:08.080Z,4.38
2023-02-26T11:18:08.526Z,6.13
2023-02-26T11:30:08.979Z,5.44
2023-02-26T11:42:09.429Z,6.04
2023-02-26T11:54:09.914Z,1.93
2023-02-26T12:06:10.312Z,2.83
2023-02-26T12:18:10.726Z,3.20
2023-02-26T12:30:11.320Z,3.57
2023-02-26T12:42:11.700Z,2.84
2023-02-26T12:54:12.112Z,2.60
2023-02-26T13:06:12.604Z,2.93
2023-02-26T13:18:12.999Z,3.24
2023-02-26T13:30:13.456Z,4.54
2023-02-26T13:42:13.942Z,4.07
2023-02-26T13:54:14.425Z,2.73
2023-02-26T14:06:14.796Z,3.78
2023-02-26T14:18:15.295Z,4.43
2023-02-26T14:30:15.694Z,3.85
2023-02-26T14:42:16.210Z,3.66
2023-02-26T14:54:16.649Z,2.87
2023-02-26T15:06:17.117Z,3.05
2023-02-26T15:18:17.528Z,3.71
2023-02-26T15:30:17.961Z,2.05
2023-02-26T15:42:18.471Z,1.70
2023-02-26T15:54:18.935Z,1.63
2023-02-26T16:06:19.336Z,2.36
2023-02-26T16:18:19.821Z,1.53
2023-02-26T16:30:20.225Z,2.57
2023-02-26T16:42:20.690Z,2.09
2023-02-26T16:54:21.120Z,2.58
2023-02-26T17:06:21.590Z,1.30
2023-02-26T17:18:22.040Z,1.33
2023-02-26T17:30:22.502Z,2.27
2023-02-26T17:42:22.914Z,2.02
2023-02-26T17:54:23.350Z,2.66
2023-02-26T18:06:23.834Z,2.25
2023-02-26T18:18:24.346Z,2.68
2023-02-26T18:30:24.752Z,2.17
2023-02-26T18:42:25.273Z,3.92
2023-02-26T18:54:25.663Z,1.48
2023-02-26T19:06:26.091Z,1.70
2023-02-26T19:18:26.645Z,1.62
2023-02-26T19:30:27.600Z,1.82
2023-02-26T19:42:27.471Z,2.67
2023-02-26T19:54:27.948Z,2.92
2023-02-26T20:06:28.345Z,1.71
2023-02-26T20:18:28.820Z,1.72
2023-02-26T20:30:29.269Z,2.65
2023-02-26T20:42:29.708Z,1.17
2023-02-26T20:54:30.188Z,1.74
2023-02-26T21:06:30.641Z,1.25
2023-02-26T21:18:31.076Z,1.89
2023-02-26T21:30:31.569Z,2.80
2023-02-26T21:42:31.973Z,3.21
2023-02-26T21:54:32.465Z,3.17
2023-02-26T22:06:32.913Z,3.05
2023-02-26T22:18:33.377Z,1.54
2023-02-26T22:30:33.842Z,3.15
2023-02-26T22:42:34.225Z,1.29
2023-02-26T22:54:34.713Z,2.12
2023-02-26T23:06:35.204Z,1.26
2023-02-26T23:18:35.582Z,1.63
2023-02-26T23:30:36.071Z,1.80
2023-02-26T23:42:36.498Z,0.99
2023-02-26T23:54:36.985Z,2.10
